Latest Weather Observations for Cape Moreton

IDQ60801

Issued at 1:02 pm EST Thursday 25 May 2017 (issued every 30 minutes, with the page automatically refreshed every 10 minutes)

About weather observations | Map of weather stations | Latest weather observations for QLD | Other Formats
Station Details ID: 040043 Name: CAPE MORETON LIGHTHOUSE Lat: -27.03 Lon: 153.47 Height: 99.9 m
Data from the previous 72 hours. | See also: Recent months at Cape Moreton
Date/Time
EST
Temp
°C
App
Temp
°C
Dew
Point
°C
Rel
Hum
%
Delta-T
°C
Wind Press
QNH
hPa
Press
MSL
hPa
Rain since
9am
mm
Dir  Spd
km/h
Gust
km/h
Spd
kts
Gust
kts
25/01:00pm 21.5 16.4 16.7 74 2.9 SSE 39 48 21 26 1017.2 1016.9 0.0
25/12:30pm 21.8 16.9 17.2 75 2.8 SSE 39 52 21 28 1017.4 1017.1 0.0
25/12:00pm 21.4 16.1 16.4 73 3.0 SSE 39 50 21 27 1017.8 1017.5 0.0
25/11:30am 21.8 17.4 16.7 73 3.1 SSE 35 44 19 24 1018.0 1017.7 0.0
25/11:00am 21.7 17.3 16.6 73 3.1 SSE 35 46 19 25 1018.2 1017.9 0.0
25/10:30am 22.1 19.5 17.9 77 2.6 S 28 37 15 20 1018.6 1018.3 0.0
25/10:00am 21.2 19.1 17.2 78 2.5 S 24 35 13 19 1018.7 1018.4 0.0
25/09:30am 21.4 19.1 17.6 79 2.4 S 26 35 14 19 1018.6 1018.3 0.0
25/09:00am 20.7 19.0 17.3 81 2.1 S 22 32 12 17 1018.7 1018.4 0.0
25/08:30am 20.4 18.4 17.4 83 1.8 S 24 30 13 16 1018.6 1018.3 0.0
25/08:00am 19.9 18.8 17.3 85 1.6 SSW 19 28 10 15 1018.4 1018.1 0.0
25/07:30am 18.7 16.9 15.9 84 1.7 SW 20 26 11 14 1018.1 1017.8 0.0
25/07:00am 18.3 15.5 15.4 83 1.7 SW 24 28 13 15 1017.8 1017.5 0.0
25/06:30am 18.3 15.4 15.0 81 1.9 SW 24 28 13 15 1017.5 1017.2 0.0
25/06:00am 18.5 15.8 14.6 78 2.3 SSW 22 26 12 14 1017.0 1016.7 0.0
25/05:30am 18.1 14.9 14.2 78 2.2 SW 24 30 13 16 1016.7 1016.4 0.0
25/05:00am 18.1 15.0 15.7 86 1.4 SW 26 32 14 17 1016.3 1016.0 0.0
25/04:30am 18.1 17.0 17.3 95 0.5 SW 19 22 10 12 1016.3 1016.0 0.0
25/04:00am 18.9 16.7 17.0 89 1.2 WSW 24 30 13 16 1016.0 1015.7 0.0
25/03:30am 19.2 17.1 18.0 93 0.7 WSW 26 32 14 17 1015.7 1015.4 0.0
25/03:00am 19.4 17.4 18.2 93 0.7 WSW 26 32 14 17 1015.5 1015.2 0.0
25/02:30am 19.7 17.6 17.1 85 1.6 WSW 24 32 13 17 1015.4 1015.1 0.0
25/02:00am 20.2 18.5 18.1 88 1.3 W 24 30 13 16 1015.5 1015.2 0.0
25/01:30am 20.8 19.8 19.6 93 0.8 WNW 24 30 13 16 1015.6 1015.3 0.0
25/01:00am 20.9 19.9 19.6 92 0.8 WNW 24 30 13 16 1015.9 1015.6 0.0
25/12:30am 21.1 20.2 19.9 93 0.8 NW 24 30 13 16 1016.0 1015.7 0.0
25/12:00am 21.4 21.0 20.2 93 0.8 NW 22 30 12 16 1016.1 1015.8 0.0
 
Date/Time
EST
Temp
°C
App
Temp
°C
Dew
Point
°C
Rel
Hum
%
Delta-T
°C
Wind Press
QNH
hPa
Press
MSL
hPa
Rain since
9am
mm
Dir  Spd
km/h
Gust
km/h
Spd
kts
Gust
kts
24/11:30pm 21.6 19.9 19.9 90 1.1 NW 28 35 15 19 1016.3 1016.0 0.0
24/11:00pm 21.7 20.2 20.3 92 0.9 NW 28 35 15 19 1016.6 1016.3 0.0
24/10:30pm 21.8 21.1 21.0 95 0.5 NNW 26 35 14 19 1016.7 1016.4 0.0
24/10:00pm 21.9 22.7 21.7 99 0.1 NNW 20 30 11 16 1016.7 1016.4 0.0
24/09:30pm 22.0 22.0 21.7 98 0.2 NNW 24 32 13 17 1016.8 1016.5 0.0
24/09:00pm 21.9 22.5 21.4 97 0.3 NNW 20 30 11 16 1016.6 1016.3 0.0
24/08:30pm 21.9 22.0 21.2 96 0.5 NNW 22 30 12 16 1016.7 1016.4 0.0
24/08:00pm 21.8 21.9 21.1 96 0.5 NNW 22 32 12 17 1016.8 1016.5 0.0
24/07:30pm 21.9 21.9 20.9 94 0.7 NNW 22 30 12 16 1016.7 1016.4 0.0
24/07:00pm 21.7 21.8 20.3 92 0.9 NNW 20 28 11 15 1016.6 1016.3 0.0
24/06:30pm 21.6 21.4 19.7 89 1.2 NNW 20 26 11 14 1016.5 1016.2 0.0
24/06:00pm 21.6 21.2 19.3 87 1.5 N 20 24 11 13 1016.3 1016.0 0.0
24/05:30pm 21.5 20.6 19.1 86 1.5 N 22 26 12 14 1016.2 1015.9 0.0
24/05:00pm 21.5 21.0 19.1 86 1.5 N 20 24 11 13 1016.1 1015.8 0.0
24/04:30pm 21.8 21.8 19.0 84 1.8 N 17 22 9 12 1015.9 1015.6 0.0
24/04:00pm 21.9 22.1 18.5 81 2.1 NNW 15 20 8 11 1015.8 1015.5 0.0
24/03:30pm 22.1 22.0 18.7 81 2.1 NNW 17 20 9 11 1015.9 1015.6 0.0
24/03:00pm 22.6 22.9 18.8 79 2.4 NNW 15 19 8 10 1015.9 1015.6 0.0
24/02:30pm 22.9 23.3 18.9 78 2.5 NNW 15 20 8 11 1016.0 1015.7 0.0
24/02:00pm 23.0 23.9 18.5 76 2.8 NNW 11 17 6 9 1016.3 1016.0 0.0
24/01:30pm 22.2 22.5 17.8 76 2.7 NNW 13 19 7 10 1016.6 1016.3 0.0
24/01:00pm 22.8 23.0 17.7 73 3.2 NW 13 17 7 9 1017.1 1016.8 0.0
24/12:30pm 22.3 22.2 17.0 72 3.3 NW 13 17 7 9 1017.4 1017.1 0.0
24/12:00pm 22.3 22.2 17.0 72 3.3 NW 13 17 7 9 1017.9 1017.6 0.0
24/11:30am 22.1 21.3 16.1 69 3.6 W 15 19 8 10 1018.4 1018.1 0.0
24/11:00am 22.1 21.9 16.8 72 3.2 W 13 19 7 10 1019.0 1018.7 0.0
24/10:30am 22.1 22.4 17.9 77 2.6 W 13 17 7 9 1019.4 1019.1 0.0
24/10:00am 21.9 22.8 18.3 80 2.3 W 11 15 6 8 1019.7 1019.4 0.0
24/09:30am 21.4 22.8 18.6 84 1.8 W 9 13 5 7 1019.8 1019.5 0.0
24/09:00am 21.1 23.1 19.9 93 0.8 W 9 13 5 7 1019.9 1019.6 0.0
24/08:30am 20.3 21.5 19.8 97 0.3 W 13 17 7 9 1019.8 1019.5 0.0
24/08:00am 19.6 20.0 18.9 96 0.4 W 15 17 8 9 1019.6 1019.3 0.0
24/07:30am 18.9 19.2 18.7 99 0.1 WSW 15 17 8 9 1019.5 1019.2 0.0
24/07:00am 18.4 18.2 18.4 100 0.0 WSW 17 19 9 10 1019.2 1018.9 0.0
24/06:30am 18.3 18.0 18.3 100 0.0 WSW 17 20 9 11 1019.0 1018.7 0.0
24/06:00am 18.2 17.5 18.2 100 0.0 WSW 19 22 10 12 1018.9 1018.6 0.0
24/05:30am 18.5 18.2 18.3 99 0.1 WSW 17 20 9 11 1018.7 1018.4 0.0
24/05:00am 18.8 19.3 18.3 97 0.3 WSW 13 15 7 8 1018.5 1018.2 0.0
24/04:30am 18.7 18.8 18.4 98 0.2 SW 15 17 8 9 1018.3 1018.0 0.0
24/04:00am 19.0 19.1 17.5 91 0.9 SW 13 13 7 7 1018.2 1017.9 0.0
24/03:30am 19.3 19.9 17.6 90 1.0 SW 11 13 6 7 1018.2 1017.9 0.0
24/03:00am 19.2 20.2 17.7 91 0.9 SW 9 11 5 6 1018.3 1018.0 0.0
24/02:30am 19.2 20.3 17.9 92 0.8 SW 9 11 5 6 1018.6 1018.3 0.0
24/02:00am 19.3 20.0 18.0 92 0.8 SW 11 11 6 6 1018.9 1018.6 0.0
24/01:30am 19.3 20.0 18.0 92 0.8 SW 11 13 6 7 1019.1 1018.8 0.0
24/01:00am 19.5 20.1 17.8 90 1.0 SSW 11 13 6 7 1019.4 1019.1 0.0
24/12:30am 19.4 19.6 17.7 90 1.0 SW 13 15 7 8 1019.8 1019.5 0.0
24/12:00am 19.7 20.0 17.8 89 1.2 SSW 13 15 7 8 1020.1 1019.8 0.0
 
Date/Time
EST
Temp
°C
App
Temp
°C
Dew
Point
°C
Rel
Hum
%
Delta-T
°C
Wind Press
QNH
hPa
Press
MSL
hPa
Rain since
9am
mm
Dir  Spd
km/h
Gust
km/h
Spd
kts
Gust
kts
23/11:30pm 20.1 20.5 18.1 88 1.2 S 13 15 7 8 1020.4 1020.1 0.0
23/11:00pm 20.5 21.1 17.7 84 1.7 SSE 11 15 6 8 1020.4 1020.1 0.0
23/10:30pm 20.6 20.7 18.4 87 1.4 SE 15 19 8 10 1020.5 1020.3 0.0
23/10:00pm 20.5 20.6 18.3 87 1.4 ESE 15 19 8 10 1020.4 1020.1 0.0
23/09:30pm 20.7 20.5 18.5 87 1.4 ESE 17 20 9 11 1020.3 1020.0 0.0
23/09:00pm 20.6 20.3 18.2 86 1.5 ESE 17 19 9 10 1020.3 1020.0 0.0
23/08:30pm 20.5 20.4 17.9 85 1.6 ESE 15 19 8 10 1020.4 1020.1 0.0
23/08:00pm 20.5 20.1 18.1 86 1.5 ESE 17 20 9 11 1020.2 1019.9 0.0
23/07:30pm 20.5 20.0 17.9 85 1.6 ESE 17 19 9 10 1020.1 1019.8 0.0
23/07:00pm 20.6 20.3 18.2 86 1.5 ESE 17 20 9 11 1020.0 1019.7 0.0
23/06:30pm 20.6 19.8 18.0 85 1.6 ESE 19 22 10 12 1019.8 1019.5 0.0
23/06:00pm 20.8 20.3 18.7 88 1.3 ESE 19 22 10 12 1019.5 1019.2 0.0
23/05:30pm 20.5 19.8 18.3 87 1.4 ESE 19 22 10 12 1019.3 1019.0 0.0
23/05:00pm 20.6 20.2 18.0 85 1.6 ESE 17 20 9 11 1019.2 1018.9 0.0
23/04:30pm 21.0 20.8 18.4 85 1.6 ESE 17 20 9 11 1019.1 1018.8 0.0
23/04:00pm 21.3 21.1 18.5 84 1.8 SE 17 20 9 11 1018.9 1018.6 0.0
23/03:30pm 21.5 21.4 18.7 84 1.8 SE 17 20 9 11 1018.8 1018.5 0.0
23/03:00pm 21.5 21.0 18.7 84 1.8 SE 19 24 10 13 1018.8 1018.5 0.0
23/02:30pm 21.9 21.3 18.9 83 1.9 SE 20 24 11 13 1018.8 1018.5 0.0
23/02:00pm 22.6 22.1 19.2 81 2.2 SE 20 24 11 13 1019.0 1018.7 0.0
23/01:30pm 22.5 21.7 19.3 82 2.0 SSE 22 28 12 15 1019.1 1018.8 0.0
23/01:00pm 22.0 20.2 18.8 82 2.0 SSE 26 30 14 16 1019.4 1019.1 0.0
23/12:30pm 22.4 21.2 19.2 82 2.0 SSE 24 32 13 17 1019.8 1019.5 0.0
23/12:00pm 22.7 22.1 19.7 83 1.9 SSE 22 30 12 16 1020.2 1019.9 0.0
23/11:30am 22.6 22.3 19.6 83 1.9 SSE 20 28 11 15 1020.8 1020.6 0.0
23/11:00am 22.3 22.0 19.5 84 1.8 SSE 20 32 11 17 1021.1 1020.9 0.0
23/10:30am 22.3 22.2 19.5 84 1.8 S 19 26 10 14 1021.5 1021.3 0.0
23/10:00am 22.2 22.1 19.9 87 1.5 S 20 26 11 14 1022.0 1021.8 0.0
23/09:30am 21.9 21.8 19.6 87 1.5 S 19 28 10 15 1022.1 1021.9 0.0
23/09:00am 21.4 20.6 19.3 88 1.3 S 22 30 12 16 1021.9 1021.7 0.0
23/08:30am 20.9 20.6 19.2 90 1.1 S 19 26 10 14 1021.9 1021.7 0.0
23/08:00am 20.2 19.8 19.4 95 0.5 S 20 28 11 15 1021.7 1021.5 0.0
23/07:30am 19.4 19.1 19.2 99 0.1 S 19 24 10 13 1021.6 1021.4 0.0
23/07:00am 18.7 17.3 18.7 100 0.0 SSW 24 30 13 16 1021.2 1021.0 0.0
23/06:30am 18.7 17.3 18.7 100 0.0 SSW 24 28 13 15 1020.8 1020.6 0.0
23/06:00am 18.8 18.2 18.8 100 0.0 SSW 20 24 11 13 1020.4 1020.1 0.0
23/05:30am 19.4 19.2 19.4 100 0.0 S 19 20 10 11 1020.2 1019.9 0.0
23/05:00am 19.2 18.9 19.2 100 0.0 S 19 22 10 12 1019.9 1019.6 0.0
23/04:30am 19.5 19.4 19.5 100 0.0 S 19 22 10 12 1020.0 1019.7 0.0
23/04:00am 19.5 19.3 19.3 99 0.1 S 19 24 10 13 1019.9 1019.6 0.0
23/03:30am 20.2 20.4 19.4 95 0.5 S 17 24 9 13 1019.9 1019.6 0.0
23/03:00am 21.0 19.4 19.1 89 1.2 SE 26 32 14 17 1019.9 1019.6 0.0
23/02:30am 20.9 20.1 19.2 90 1.1 SE 22 28 12 15 1019.9 1019.6 0.0
23/02:00am 20.9 19.6 19.0 89 1.2 SE 24 28 13 15 1020.0 1019.7 0.0
23/01:30am 20.9 19.5 18.8 88 1.3 SE 24 30 13 16 1020.2 1019.9 0.0
23/01:00am 21.0 19.3 18.9 88 1.3 SE 26 32 14 17 1020.2 1019.9 0.0
23/12:30am 21.1 19.0 19.0 88 1.3 ESE 28 32 15 17 1020.5 1020.3 0.0
23/12:00am 21.2 19.2 19.1 88 1.3 SE 28 33 15 18 1020.7 1020.5 0.0
 
Date/Time
EST
Temp
°C
App
Temp
°C
Dew
Point
°C
Rel
Hum
%
Delta-T
°C
Wind Press
QNH
hPa
Press
MSL
hPa
Rain since
9am
mm
Dir  Spd
km/h
Gust
km/h
Spd
kts
Gust
kts
22/11:30pm 21.2 19.0 18.8 86 1.5 ESE 28 35 15 19 1021.0 1020.8 0.0
22/11:00pm 21.4 19.6 19.5 89 1.2 SE 28 32 15 17 1021.3 1021.1 0.0
22/10:30pm 21.3 19.4 19.4 89 1.2 ESE 28 32 15 17 1021.4 1021.2 0.0
22/10:00pm 21.2 18.8 19.1 88 1.3 ESE 30 33 16 18 1021.4 1021.2 0.0
22/09:30pm 21.1 19.2 19.4 90 1.1 ESE 28 33 15 18 1021.4 1021.2 0.0
22/09:00pm 21.2 19.0 19.5 90 1.1 ESE 30 33 16 18 1021.3 1021.1 0.0
22/08:30pm 21.0 19.3 19.7 92 0.8 ESE 28 33 15 18 1021.2 1021.0 0.0
22/08:00pm 21.2 19.6 20.0 93 0.8 ESE 28 33 15 18 1021.1 1020.9 0.0
22/07:30pm 21.1 19.0 19.7 92 0.9 ESE 30 33 16 18 1020.9 1020.7 0.0
22/07:00pm 21.1 19.0 19.7 92 0.9 ESE 30 33 16 18 1020.7 1020.5 0.0
22/06:30pm 21.2 18.7 19.7 91 1.0 SE 32 35 17 19 1020.4 1020.1 0.0
22/06:00pm 21.2 19.5 19.8 92 0.9 ESE 28 33 15 18 1020.2 1019.9 0.0
22/05:30pm 21.2 19.5 19.8 92 0.9 SE 28 35 15 19 1019.9 1019.6 0.0
22/05:00pm 21.2 19.1 19.7 91 1.0 SE 30 33 16 18 1019.8 1019.5 0.0
22/04:30pm 21.5 19.3 19.6 89 1.2 SE 30 35 16 19 1019.6 1019.3 0.0
22/04:00pm 21.5 18.9 19.4 88 1.3 SE 32 35 17 19 1019.5 1019.2 0.0
22/03:30pm 21.9 19.8 19.8 88 1.3 SE 30 37 16 20 1019.4 1019.1 0.0
22/03:00pm 21.8 19.2 19.5 87 1.5 SE 32 39 17 21 1019.4 1019.1 0.0
22/02:30pm 21.8 18.8 19.0 84 1.8 SE 33 39 18 21 1019.4 1019.1 0.0
22/02:00pm 22.2 19.7 19.7 86 1.6 SE 32 37 17 20 1019.6 1019.3 0.0
22/01:30pm 22.2 19.6 19.4 84 1.8 SSE 32 37 17 20 1019.7 1019.4 0.0

Other Formats:

Comma delimited format used in spreadsheet applications
http://www.bom.gov.au/fwo/IDQ60801/IDQ60801.94594.axf

JavaScript Object Notation format (JSON) in row-major order
http://www.bom.gov.au/fwo/IDQ60801/IDQ60801.94594.json